sensor_id;sensor_type;location;lat;lon;timestamp;P1;durP1;ratioP1;P2;durP2;ratioP2
65853;SDS011;52627;48.838;2.402;2023-03-23T00:00:20;3.40;;;1.40;;
65853;SDS011;52627;48.838;2.402;2023-03-23T00:02:47;2.80;;;1.30;;
65853;SDS011;52627;48.838;2.402;2023-03-23T00:05:13;3.10;;;1.40;;
65853;SDS011;52627;48.838;2.402;2023-03-23T00:07:40;2.90;;;1.30;;
65853;SDS011;52627;48.838;2.402;2023-03-23T00:10:11;4.50;;;1.50;;
65853;SDS011;52627;48.838;2.402;2023-03-23T00:12:37;3.90;;;1.10;;
65853;SDS011;52627;48.838;2.402;2023-03-23T00:15:08;3.80;;;1.30;;
65853;SDS011;52627;48.838;2.402;2023-03-23T00:17:39;2.80;;;1.40;;
65853;SDS011;52627;48.838;2.402;2023-03-23T00:20:06;2.80;;;1.40;;
65853;SDS011;52627;48.838;2.402;2023-03-23T00:22:34;4.40;;;1.50;;
65853;SDS011;52627;48.838;2.402;2023-03-23T00:25:04;4.80;;;1.90;;
65853;SDS011;52627;48.838;2.402;2023-03-23T00:27:31;5.10;;;1.70;;
65853;SDS011;52627;48.838;2.402;2023-03-23T00:29:58;5.90;;;1.50;;
65853;SDS011;52627;48.838;2.402;2023-03-23T00:32:25;4.50;;;1.70;;
65853;SDS011;52627;48.838;2.402;2023-03-23T00:34:55;4.40;;;1.70;;
65853;SDS011;52627;48.838;2.402;2023-03-23T00:37:25;3.30;;;1.20;;
65853;SDS011;52627;48.838;2.402;2023-03-23T00:39:51;3.90;;;1.40;;
65853;SDS011;52627;48.838;2.402;2023-03-23T00:44:49;4.40;;;1.50;;
65853;SDS011;52627;48.838;2.402;2023-03-23T00:47:16;7.20;;;1.60;;
65853;SDS011;52627;48.838;2.402;2023-03-23T00:49:43;4.80;;;1.90;;
65853;SDS011;52627;48.838;2.402;2023-03-23T00:52:09;5.70;;;1.50;;
65853;SDS011;52627;48.838;2.402;2023-03-23T00:54:36;5.60;;;1.70;;
65853;SDS011;52627;48.838;2.402;2023-03-23T00:57:04;4.80;;;1.40;;
65853;SDS011;52627;48.838;2.402;2023-03-23T00:59:31;5.40;;;1.80;;
65853;SDS011;52627;48.838;2.402;2023-03-23T01:01:57;3.40;;;1.50;;
65853;SDS011;52627;48.838;2.402;2023-03-23T01:04:24;5.10;;;1.70;;
65853;SDS011;52627;48.838;2.402;2023-03-23T01:06:50;4.70;;;1.80;;
65853;SDS011;52627;48.838;2.402;2023-03-23T01:09:18;5.10;;;1.50;;
65853;SDS011;52627;48.838;2.402;2023-03-23T01:11:49;3.20;;;1.40;;
65853;SDS011;52627;48.838;2.402;2023-03-23T01:14:18;6.50;;;1.80;;
65853;SDS011;52627;48.838;2.402;2023-03-23T01:16:45;4.70;;;1.60;;
65853;SDS011;52627;48.838;2.402;2023-03-23T01:19:11;4.60;;;1.50;;
65853;SDS011;52627;48.838;2.402;2023-03-23T01:21:38;5.50;;;1.80;;
65853;SDS011;52627;48.838;2.402;2023-03-23T01:24:05;5.10;;;1.90;;
65853;SDS011;52627;48.838;2.402;2023-03-23T01:26:32;5.60;;;2.00;;
65853;SDS011;52627;48.838;2.402;2023-03-23T01:28:58;4.00;;;1.60;;
65853;SDS011;52627;48.838;2.402;2023-03-23T01:31:25;4.00;;;1.60;;
65853;SDS011;52627;48.838;2.402;2023-03-23T01:33:53;5.00;;;1.70;;
65853;SDS011;52627;48.838;2.402;2023-03-23T01:36:24;4.00;;;1.70;;
65853;SDS011;52627;48.838;2.402;2023-03-23T01:41:20;5.20;;;1.90;;
65853;SDS011;52627;48.838;2.402;2023-03-23T01:44:59;4.40;;;1.60;;
65853;SDS011;52627;48.838;2.402;2023-03-23T01:46:56;3.90;;;1.70;;
65853;SDS011;52627;48.838;2.402;2023-03-23T01:49:36;3.30;;;1.50;;
65853;SDS011;52627;48.838;2.402;2023-03-23T01:52:11;3.70;;;1.70;;
65853;SDS011;52627;48.838;2.402;2023-03-23T01:54:43;3.90;;;1.70;;
65853;SDS011;52627;48.838;2.402;2023-03-23T01:57:15;3.30;;;1.50;;
65853;SDS011;52627;48.838;2.402;2023-03-23T01:59:45;4.10;;;1.70;;
65853;SDS011;52627;48.838;2.402;2023-03-23T02:02:14;3.20;;;1.50;;
65853;SDS011;52627;48.838;2.402;2023-03-23T02:04:42;4.10;;;1.60;;
65853;SDS011;52627;48.838;2.402;2023-03-23T02:07:09;3.40;;;1.40;;
65853;SDS011;52627;48.838;2.402;2023-03-23T02:09:36;3.40;;;1.30;;
65853;SDS011;52627;48.838;2.402;2023-03-23T02:12:03;3.80;;;1.40;;
65853;SDS011;52627;48.838;2.402;2023-03-23T02:14:30;5.20;;;1.70;;
65853;SDS011;52627;48.838;2.402;2023-03-23T02:17:05;3.00;;;1.30;;
65853;SDS011;52627;48.838;2.402;2023-03-23T02:23:13;3.90;;;1.30;;
65853;SDS011;52627;48.838;2.402;2023-03-23T02:26:16;2.70;;;1.20;;
65853;SDS011;52627;48.838;2.402;2023-03-23T02:29:02;3.10;;;1.40;;
65853;SDS011;52627;48.838;2.402;2023-03-23T02:34:49;4.40;;;1.40;;
65853;SDS011;52627;48.838;2.402;2023-03-23T02:37:28;3.50;;;1.30;;
65853;SDS011;52627;48.838;2.402;2023-03-23T02:40:02;3.10;;;1.30;;
65853;SDS011;52627;48.838;2.402;2023-03-23T02:43:03;4.10;;;1.50;;
65853;SDS011;52627;48.838;2.402;2023-03-23T02:45:33;4.70;;;1.70;;
65853;SDS011;52627;48.838;2.402;2023-03-23T02:48:02;5.40;;;1.60;;
65853;SDS011;52627;48.838;2.402;2023-03-23T02:50:31;5.20;;;1.60;;
65853;SDS011;52627;48.838;2.402;2023-03-23T02:52:59;3.80;;;1.40;;
65853;SDS011;52627;48.838;2.402;2023-03-23T02:55:27;4.70;;;1.50;;
65853;SDS011;52627;48.838;2.402;2023-03-23T02:57:56;3.00;;;1.30;;
65853;SDS011;52627;48.838;2.402;2023-03-23T03:00:22;3.60;;;1.40;;
65853;SDS011;52627;48.838;2.402;2023-03-23T03:02:50;4.60;;;1.50;;
65853;SDS011;52627;48.838;2.402;2023-03-23T03:05:26;3.20;;;1.50;;
65853;SDS011;52627;48.838;2.402;2023-03-23T03:11:07;4.30;;;1.60;;
65853;SDS011;52627;48.838;2.402;2023-03-23T03:14:12;3.20;;;1.50;;
65853;SDS011;52627;48.838;2.402;2023-03-23T03:19:29;3.50;;;1.50;;
65853;SDS011;52627;48.838;2.402;2023-03-23T03:21:59;2.90;;;1.30;;
65853;SDS011;52627;48.838;2.402;2023-03-23T03:24:28;3.50;;;1.50;;
65853;SDS011;52627;48.838;2.402;2023-03-23T03:26:59;4.00;;;1.20;;
65853;SDS011;52627;48.838;2.402;2023-03-23T03:29:29;3.10;;;1.40;;
65853;SDS011;52627;48.838;2.402;2023-03-23T03:32:01;4.80;;;1.70;;
65853;SDS011;52627;48.838;2.402;2023-03-23T03:36:59;4.30;;;1.60;;
65853;SDS011;52627;48.838;2.402;2023-03-23T03:39:26;5.90;;;1.60;;
65853;SDS011;52627;48.838;2.402;2023-03-23T03:41:54;5.70;;;2.50;;
65853;SDS011;52627;48.838;2.402;2023-03-23T03:44:21;3.20;;;1.30;;
65853;SDS011;52627;48.838;2.402;2023-03-23T03:46:47;5.40;;;1.90;;
65853;SDS011;52627;48.838;2.402;2023-03-23T03:49:14;4.40;;;1.50;;
65853;SDS011;52627;48.838;2.402;2023-03-23T03:51:41;3.70;;;1.40;;
65853;SDS011;52627;48.838;2.402;2023-03-23T03:54:08;4.80;;;1.60;;
65853;SDS011;52627;48.838;2.402;2023-03-23T03:56:34;5.50;;;1.80;;
65853;SDS011;52627;48.838;2.402;2023-03-23T03:59:07;4.20;;;1.60;;
65853;SDS011;52627;48.838;2.402;2023-03-23T04:01:36;4.10;;;1.60;;
65853;SDS011;52627;48.838;2.402;2023-03-23T04:04:04;6.20;;;1.60;;
65853;SDS011;52627;48.838;2.402;2023-03-23T04:06:33;4.80;;;1.40;;
65853;SDS011;52627;48.838;2.402;2023-03-23T04:09:05;6.30;;;1.60;;
65853;SDS011;52627;48.838;2.402;2023-03-23T04:11:32;2.80;;;1.40;;
65853;SDS011;52627;48.838;2.402;2023-03-23T04:13:59;4.40;;;1.70;;
65853;SDS011;52627;48.838;2.402;2023-03-23T04:16:25;3.90;;;1.40;;
65853;SDS011;52627;48.838;2.402;2023-03-23T04:18:52;4.70;;;1.90;;
65853;SDS011;52627;48.838;2.402;2023-03-23T04:21:18;4.50;;;1.50;;
65853;SDS011;52627;48.838;2.402;2023-03-23T04:23:44;3.10;;;1.50;;
65853;SDS011;52627;48.838;2.402;2023-03-23T04:26:11;4.80;;;1.70;;
65853;SDS011;52627;48.838;2.402;2023-03-23T04:28:39;5.70;;;1.80;;
65853;SDS011;52627;48.838;2.402;2023-03-23T04:31:07;4.30;;;1.90;;
65853;SDS011;52627;48.838;2.402;2023-03-23T04:33:34;4.10;;;1.60;;
65853;SDS011;52627;48.838;2.402;2023-03-23T04:36:03;3.80;;;1.70;;
65853;SDS011;52627;48.838;2.402;2023-03-23T04:38:32;3.90;;;1.50;;
65853;SDS011;52627;48.838;2.402;2023-03-23T04:41:00;4.20;;;1.80;;
65853;SDS011;52627;48.838;2.402;2023-03-23T04:43:28;3.80;;;1.50;;
65853;SDS011;52627;48.838;2.402;2023-03-23T04:45:56;3.70;;;1.60;;
65853;SDS011;52627;48.838;2.402;2023-03-23T04:48:24;3.60;;;1.60;;
65853;SDS011;52627;48.838;2.402;2023-03-23T04:50:53;5.30;;;1.90;;
65853;SDS011;52627;48.838;2.402;2023-03-23T04:53:20;4.40;;;1.60;;
65853;SDS011;52627;48.838;2.402;2023-03-23T04:55:48;3.70;;;1.50;;
65853;SDS011;52627;48.838;2.402;2023-03-23T04:58:16;5.20;;;1.70;;
65853;SDS011;52627;48.838;2.402;2023-03-23T05:00:43;3.60;;;1.60;;
65853;SDS011;52627;48.838;2.402;2023-03-23T05:03:10;3.80;;;1.60;;
65853;SDS011;52627;48.838;2.402;2023-03-23T05:05:37;3.20;;;1.60;;
65853;SDS011;52627;48.838;2.402;2023-03-23T05:08:03;4.50;;;1.70;;
65853;SDS011;52627;48.838;2.402;2023-03-23T05:10:30;4.50;;;1.70;;
65853;SDS011;52627;48.838;2.402;2023-03-23T05:12:56;3.70;;;1.60;;
65853;SDS011;52627;48.838;2.402;2023-03-23T05:15:22;3.70;;;1.40;;
65853;SDS011;52627;48.838;2.402;2023-03-23T05:17:51;3.30;;;1.50;;
65853;SDS011;52627;48.838;2.402;2023-03-23T05:20:18;3.70;;;1.70;;
65853;SDS011;52627;48.838;2.402;2023-03-23T05:22:46;3.60;;;1.50;;
65853;SDS011;52627;48.838;2.402;2023-03-23T05:25:17;3.90;;;1.70;;
65853;SDS011;52627;48.838;2.402;2023-03-23T05:27:47;4.20;;;1.50;;
65853;SDS011;52627;48.838;2.402;2023-03-23T05:30:21;4.60;;;1.60;;
65853;SDS011;52627;48.838;2.402;2023-03-23T05:32:48;5.60;;;1.60;;
65853;SDS011;52627;48.838;2.402;2023-03-23T05:35:18;6.10;;;1.80;;
65853;SDS011;52627;48.838;2.402;2023-03-23T05:37:46;4.60;;;1.60;;
65853;SDS011;52627;48.838;2.402;2023-03-23T05:40:13;4.10;;;1.50;;
65853;SDS011;52627;48.838;2.402;2023-03-23T05:42:40;3.90;;;1.70;;
65853;SDS011;52627;48.838;2.402;2023-03-23T05:45:08;3.90;;;1.50;;
65853;SDS011;52627;48.838;2.402;2023-03-23T05:47:37;3.40;;;1.40;;
65853;SDS011;52627;48.838;2.402;2023-03-23T05:50:05;4.30;;;1.40;;
65853;SDS011;52627;48.838;2.402;2023-03-23T05:52:33;3.90;;;1.80;;
65853;SDS011;52627;48.838;2.402;2023-03-23T05:55:02;4.20;;;1.50;;
65853;SDS011;52627;48.838;2.402;2023-03-23T05:57:30;3.70;;;1.50;;
65853;SDS011;52627;48.838;2.402;2023-03-23T05:59:56;5.50;;;1.50;;
65853;SDS011;52627;48.838;2.402;2023-03-23T06:02:24;3.30;;;1.40;;
65853;SDS011;52627;48.838;2.402;2023-03-23T06:04:50;4.30;;;1.50;;
65853;SDS011;52627;48.838;2.402;2023-03-23T06:07:23;4.80;;;1.50;;
65853;SDS011;52627;48.838;2.402;2023-03-23T06:09:51;6.80;;;1.80;;
65853;SDS011;52627;48.838;2.402;2023-03-23T06:12:18;7.30;;;2.70;;
65853;SDS011;52627;48.838;2.402;2023-03-23T06:14:48;3.80;;;1.50;;
65853;SDS011;52627;48.838;2.402;2023-03-23T06:17:15;3.80;;;1.50;;
65853;SDS011;52627;48.838;2.402;2023-03-23T06:19:44;3.80;;;1.80;;
65853;SDS011;52627;48.838;2.402;2023-03-23T06:22:13;4.80;;;1.50;;
65853;SDS011;52627;48.838;2.402;2023-03-23T06:24:40;5.10;;;1.40;;
65853;SDS011;52627;48.838;2.402;2023-03-23T06:27:06;4.20;;;1.60;;
65853;SDS011;52627;48.838;2.402;2023-03-23T06:29:35;3.30;;;1.70;;
65853;SDS011;52627;48.838;2.402;2023-03-23T06:32:03;3.90;;;1.80;;
65853;SDS011;52627;48.838;2.402;2023-03-23T06:34:31;4.00;;;1.50;;
65853;SDS011;52627;48.838;2.402;2023-03-23T06:36:58;5.00;;;1.90;;
65853;SDS011;52627;48.838;2.402;2023-03-23T06:39:26;4.10;;;1.80;;
65853;SDS011;52627;48.838;2.402;2023-03-23T06:41:52;5.10;;;1.90;;
65853;SDS011;52627;48.838;2.402;2023-03-23T06:44:19;4.80;;;1.90;;
65853;SDS011;52627;48.838;2.402;2023-03-23T06:46:45;4.10;;;1.70;;
65853;SDS011;52627;48.838;2.402;2023-03-23T06:49:11;4.30;;;1.90;;
65853;SDS011;52627;48.838;2.402;2023-03-23T06:51:38;5.30;;;1.70;;
65853;SDS011;52627;48.838;2.402;2023-03-23T06:54:04;3.90;;;1.60;;
65853;SDS011;52627;48.838;2.402;2023-03-23T06:56:31;4.60;;;1.90;;
65853;SDS011;52627;48.838;2.402;2023-03-23T06:58:58;3.60;;;1.80;;
65853;SDS011;52627;48.838;2.402;2023-03-23T07:01:25;6.70;;;2.00;;
65853;SDS011;52627;48.838;2.402;2023-03-23T07:03:53;3.90;;;2.00;;
65853;SDS011;52627;48.838;2.402;2023-03-23T07:06:19;5.90;;;2.10;;
65853;SDS011;52627;48.838;2.402;2023-03-23T07:08:46;5.30;;;2.00;;
65853;SDS011;52627;48.838;2.402;2023-03-23T07:11:12;4.40;;;2.10;;
65853;SDS011;52627;48.838;2.402;2023-03-23T07:13:39;4.20;;;2.00;;
65853;SDS011;52627;48.838;2.402;2023-03-23T07:16:06;4.20;;;2.10;;
65853;SDS011;52627;48.838;2.402;2023-03-23T07:18:33;3.60;;;1.80;;
65853;SDS011;52627;48.838;2.402;2023-03-23T07:21:00;5.20;;;2.00;;
65853;SDS011;52627;48.838;2.402;2023-03-23T07:23:28;4.70;;;2.20;;
65853;SDS011;52627;48.838;2.402;2023-03-23T07:25:56;4.80;;;2.30;;
65853;SDS011;52627;48.838;2.402;2023-03-23T07:28:22;5.00;;;2.00;;
65853;SDS011;52627;48.838;2.402;2023-03-23T07:30:50;4.90;;;1.80;;
65853;SDS011;52627;48.838;2.402;2023-03-23T07:33:18;4.70;;;2.10;;
65853;SDS011;52627;48.838;2.402;2023-03-23T07:35:44;5.20;;;2.00;;
65853;SDS011;52627;48.838;2.402;2023-03-23T07:38:11;4.00;;;1.80;;
65853;SDS011;52627;48.838;2.402;2023-03-23T07:40:37;5.70;;;1.80;;
65853;SDS011;52627;48.838;2.402;2023-03-23T07:43:04;5.70;;;2.10;;
65853;SDS011;52627;48.838;2.402;2023-03-23T07:45:31;7.10;;;1.90;;
65853;SDS011;52627;48.838;2.402;2023-03-23T07:47:57;4.80;;;2.10;;
65853;SDS011;52627;48.838;2.402;2023-03-23T07:50:24;4.20;;;1.90;;
65853;SDS011;52627;48.838;2.402;2023-03-23T07:52:56;4.90;;;2.00;;
65853;SDS011;52627;48.838;2.402;2023-03-23T07:57:52;7.10;;;2.30;;
65853;SDS011;52627;48.838;2.402;2023-03-23T08:00:20;5.90;;;2.30;;
65853;SDS011;52627;48.838;2.402;2023-03-23T08:02:52;6.40;;;1.80;;
65853;SDS011;52627;48.838;2.402;2023-03-23T08:05:21;6.40;;;2.00;;
65853;SDS011;52627;48.838;2.402;2023-03-23T08:07:49;4.20;;;1.80;;
65853;SDS011;52627;48.838;2.402;2023-03-23T08:10:16;4.00;;;1.80;;
65853;SDS011;52627;48.838;2.402;2023-03-23T08:12:44;5.20;;;1.90;;
65853;SDS011;52627;48.838;2.402;2023-03-23T08:15:13;7.90;;;1.90;;
65853;SDS011;52627;48.838;2.402;2023-03-23T08:17:41;5.40;;;2.20;;
65853;SDS011;52627;48.838;2.402;2023-03-23T08:20:09;4.70;;;1.80;;
65853;SDS011;52627;48.838;2.402;2023-03-23T08:22:40;5.30;;;2.00;;
65853;SDS011;52627;48.838;2.402;2023-03-23T08:25:08;6.00;;;2.30;;
65853;SDS011;52627;48.838;2.402;2023-03-23T08:27:36;4.80;;;1.90;;
65853;SDS011;52627;48.838;2.402;2023-03-23T08:30:04;5.60;;;1.70;;
65853;SDS011;52627;48.838;2.402;2023-03-23T08:32:33;5.30;;;1.80;;
65853;SDS011;52627;48.838;2.402;2023-03-23T08:35:00;6.50;;;1.90;;
65853;SDS011;52627;48.838;2.402;2023-03-23T08:37:26;4.20;;;2.00;;
65853;SDS011;52627;48.838;2.402;2023-03-23T08:39:54;4.40;;;1.60;;
65853;SDS011;52627;48.838;2.402;2023-03-23T08:42:21;5.20;;;1.70;;
65853;SDS011;52627;48.838;2.402;2023-03-23T08:44:49;5.30;;;2.40;;
65853;SDS011;52627;48.838;2.402;2023-03-23T08:47:15;6.10;;;2.00;;
65853;SDS011;52627;48.838;2.402;2023-03-23T08:49:42;7.70;;;2.00;;
65853;SDS011;52627;48.838;2.402;2023-03-23T08:52:08;5.00;;;2.00;;
65853;SDS011;52627;48.838;2.402;2023-03-23T08:54:35;5.10;;;2.20;;
65853;SDS011;52627;48.838;2.402;2023-03-23T08:57:02;4.90;;;2.00;;
65853;SDS011;52627;48.838;2.402;2023-03-23T08:59:29;6.80;;;1.80;;
65853;SDS011;52627;48.838;2.402;2023-03-23T09:01:55;7.10;;;1.90;;
65853;SDS011;52627;48.838;2.402;2023-03-23T09:04:22;6.40;;;2.10;;
65853;SDS011;52627;48.838;2.402;2023-03-23T09:06:48;9.20;;;1.80;;
65853;SDS011;52627;48.838;2.402;2023-03-23T09:09:14;6.50;;;2.50;;
65853;SDS011;52627;48.838;2.402;2023-03-23T09:11:41;4.40;;;1.90;;
65853;SDS011;52627;48.838;2.402;2023-03-23T09:14:07;4.00;;;1.90;;
65853;SDS011;52627;48.838;2.402;2023-03-23T09:16:34;6.70;;;2.20;;
65853;SDS011;52627;48.838;2.402;2023-03-23T09:19:00;5.00;;;1.70;;
65853;SDS011;52627;48.838;2.402;2023-03-23T09:21:27;7.10;;;2.50;;
65853;SDS011;52627;48.838;2.402;2023-03-23T09:23:55;7.90;;;2.30;;
65853;SDS011;52627;48.838;2.402;2023-03-23T09:26:25;9.00;;;2.10;;
65853;SDS011;52627;48.838;2.402;2023-03-23T09:28:53;6.00;;;2.00;;
65853;SDS011;52627;48.838;2.402;2023-03-23T09:31:19;7.10;;;1.90;;
65853;SDS011;52627;48.838;2.402;2023-03-23T09:33:46;5.50;;;1.80;;
65853;SDS011;52627;48.838;2.402;2023-03-23T09:36:13;6.00;;;2.30;;
65853;SDS011;52627;48.838;2.402;2023-03-23T09:38:42;4.60;;;1.90;;
65853;SDS011;52627;48.838;2.402;2023-03-23T09:44:07;6.90;;;1.90;;
65853;SDS011;52627;48.838;2.402;2023-03-23T09:50:12;5.90;;;2.20;;
65853;SDS011;52627;48.838;2.402;2023-03-23T09:52:55;8.40;;;2.00;;
65853;SDS011;52627;48.838;2.402;2023-03-23T09:55:24;7.70;;;2.00;;
65853;SDS011;52627;48.838;2.402;2023-03-23T09:57:59;5.30;;;1.70;;
65853;SDS011;52627;48.838;2.402;2023-03-23T10:00:32;8.80;;;2.70;;
65853;SDS011;52627;48.838;2.402;2023-03-23T10:03:16;7.20;;;2.00;;
65853;SDS011;52627;48.838;2.402;2023-03-23T10:05:46;7.80;;;2.20;;
65853;SDS011;52627;48.838;2.402;2023-03-23T10:17:23;8.40;;;2.00;;
65853;SDS011;52627;48.838;2.402;2023-03-23T10:20:25;8.10;;;2.40;;
65853;SDS011;52627;48.838;2.402;2023-03-23T10:25:36;9.70;;;2.30;;
65853;SDS011;52627;48.838;2.402;2023-03-23T10:30:39;8.50;;;2.00;;
65853;SDS011;52627;48.838;2.402;2023-03-23T10:33:21;7.10;;;2.00;;
65853;SDS011;52627;48.838;2.402;2023-03-23T10:35:56;5.90;;;1.90;;
65853;SDS011;52627;48.838;2.402;2023-03-23T10:38:31;5.80;;;2.00;;
65853;SDS011;52627;48.838;2.402;2023-03-23T10:41:06;7.50;;;2.30;;
65853;SDS011;52627;48.838;2.402;2023-03-23T10:43:38;8.10;;;2.30;;
65853;SDS011;52627;48.838;2.402;2023-03-23T10:46:19;8.40;;;2.10;;
65853;SDS011;52627;48.838;2.402;2023-03-23T10:48:54;8.50;;;2.40;;
65853;SDS011;52627;48.838;2.402;2023-03-23T10:51:31;9.00;;;2.30;;
65853;SDS011;52627;48.838;2.402;2023-03-23T10:54:03;8.90;;;2.20;;
65853;SDS011;52627;48.838;2.402;2023-03-23T10:59:27;6.30;;;2.00;;
65853;SDS011;52627;48.838;2.402;2023-03-23T11:01:58;5.60;;;2.00;;
65853;SDS011;52627;48.838;2.402;2023-03-23T11:04:33;8.70;;;2.20;;
65853;SDS011;52627;48.838;2.402;2023-03-23T11:07:10;9.40;;;2.10;;
65853;SDS011;52627;48.838;2.402;2023-03-23T11:09:54;10.40;;;2.40;;
65853;SDS011;52627;48.838;2.402;2023-03-23T11:12:22;8.00;;;2.70;;
65853;SDS011;52627;48.838;2.402;2023-03-23T11:14:49;9.40;;;2.70;;
65853;SDS011;52627;48.838;2.402;2023-03-23T11:17:25;10.90;;;2.60;;
65853;SDS011;52627;48.838;2.402;2023-03-23T11:19:53;6.80;;;2.40;;
65853;SDS011;52627;48.838;2.402;2023-03-23T11:22:31;12.10;;;2.30;;
65853;SDS011;52627;48.838;2.402;2023-03-23T11:25:04;7.70;;;2.40;;
65853;SDS011;52627;48.838;2.402;2023-03-23T11:27:33;10.50;;;3.10;;
65853;SDS011;52627;48.838;2.402;2023-03-23T11:30:25;10.90;;;2.50;;
65853;SDS011;52627;48.838;2.402;2023-03-23T11:32:54;9.30;;;2.30;;
65853;SDS011;52627;48.838;2.402;2023-03-23T11:35:26;10.40;;;3.10;;
65853;SDS011;52627;48.838;2.402;2023-03-23T11:37:55;9.90;;;3.00;;
65853;SDS011;52627;48.838;2.402;2023-03-23T11:40:26;11.70;;;2.70;;
65853;SDS011;52627;48.838;2.402;2023-03-23T11:43:00;10.90;;;2.40;;
65853;SDS011;52627;48.838;2.402;2023-03-23T11:45:37;8.30;;;2.10;;
65853;SDS011;52627;48.838;2.402;2023-03-23T11:48:19;8.80;;;2.20;;
65853;SDS011;52627;48.838;2.402;2023-03-23T11:50:54;9.50;;;2.20;;
65853;SDS011;52627;48.838;2.402;2023-03-23T11:54:33;8.30;;;2.60;;
65853;SDS011;52627;48.838;2.402;2023-03-23T11:57:07;10.40;;;2.60;;
65853;SDS011;52627;48.838;2.402;2023-03-23T11:59:37;9.40;;;2.30;;
65853;SDS011;52627;48.838;2.402;2023-03-23T12:08:25;9.20;;;2.80;;
65853;SDS011;52627;48.838;2.402;2023-03-23T12:11:15;13.40;;;2.90;;
65853;SDS011;52627;48.838;2.402;2023-03-23T12:16:56;7.80;;;2.50;;
65853;SDS011;52627;48.838;2.402;2023-03-23T12:25:36;12.10;;;2.70;;
65853;SDS011;52627;48.838;2.402;2023-03-23T12:36:27;9.60;;;2.70;;
65853;SDS011;52627;48.838;2.402;2023-03-23T12:42:22;10.00;;;3.40;;
65853;SDS011;52627;48.838;2.402;2023-03-23T12:45:02;9.20;;;2.50;;
65853;SDS011;52627;48.838;2.402;2023-03-23T12:48:00;11.80;;;2.70;;
65853;SDS011;52627;48.838;2.402;2023-03-23T12:50:59;7.80;;;2.20;;
65853;SDS011;52627;48.838;2.402;2023-03-23T12:53:33;8.00;;;2.30;;
65853;SDS011;52627;48.838;2.402;2023-03-23T12:56:13;7.20;;;2.20;;
65853;SDS011;52627;48.838;2.402;2023-03-23T13:01:25;10.70;;;2.60;;
65853;SDS011;52627;48.838;2.402;2023-03-23T13:04:21;10.00;;;2.50;;
65853;SDS011;52627;48.838;2.402;2023-03-23T13:06:54;8.30;;;2.30;;
65853;SDS011;52627;48.838;2.402;2023-03-23T13:12:19;7.50;;;2.60;;
65853;SDS011;52627;48.838;2.402;2023-03-23T13:15:01;11.00;;;2.70;;
65853;SDS011;52627;48.838;2.402;2023-03-23T13:17:55;8.20;;;2.10;;
65853;SDS011;52627;48.838;2.402;2023-03-23T13:20:52;10.00;;;3.50;;
65853;SDS011;52627;48.838;2.402;2023-03-23T13:23:29;7.60;;;2.40;;
65853;SDS011;52627;48.838;2.402;2023-03-23T13:26:03;9.80;;;2.40;;
65853;SDS011;52627;48.838;2.402;2023-03-23T13:28:54;7.50;;;2.30;;
65853;SDS011;52627;48.838;2.402;2023-03-23T13:31:34;7.70;;;2.20;;
65853;SDS011;52627;48.838;2.402;2023-03-23T13:34:22;8.40;;;2.40;;
65853;SDS011;52627;48.838;2.402;2023-03-23T13:37:01;9.80;;;2.30;;
65853;SDS011;52627;48.838;2.402;2023-03-23T13:40:11;10.10;;;2.30;;
65853;SDS011;52627;48.838;2.402;2023-03-23T13:42:51;10.90;;;2.60;;
65853;SDS011;52627;48.838;2.402;2023-03-23T13:50:57;6.20;;;2.20;;
65853;SDS011;52627;48.838;2.402;2023-03-23T13:53:43;10.00;;;2.30;;
65853;SDS011;52627;48.838;2.402;2023-03-23T13:59:06;9.70;;;2.40;;
65853;SDS011;52627;48.838;2.402;2023-03-23T14:01:39;9.20;;;2.50;;
65853;SDS011;52627;48.838;2.402;2023-03-23T14:04:16;7.70;;;2.00;;
65853;SDS011;52627;48.838;2.402;2023-03-23T14:06:45;7.10;;;2.30;;
65853;SDS011;52627;48.838;2.402;2023-03-23T14:09:26;11.30;;;2.30;;
65853;SDS011;52627;48.838;2.402;2023-03-23T14:12:00;8.10;;;2.10;;
65853;SDS011;52627;48.838;2.402;2023-03-23T14:14:44;10.30;;;2.70;;
65853;SDS011;52627;48.838;2.402;2023-03-23T14:17:15;9.30;;;2.30;;
65853;SDS011;52627;48.838;2.402;2023-03-23T14:19:50;8.80;;;2.40;;
65853;SDS011;52627;48.838;2.402;2023-03-23T14:22:22;8.50;;;2.00;;
65853;SDS011;52627;48.838;2.402;2023-03-23T14:24:50;6.30;;;2.40;;
65853;SDS011;52627;48.838;2.402;2023-03-23T14:27:22;5.70;;;2.10;;
65853;SDS011;52627;48.838;2.402;2023-03-23T14:29:59;7.10;;;2.30;;
65853;SDS011;52627;48.838;2.402;2023-03-23T14:32:29;9.30;;;2.80;;
65853;SDS011;52627;48.838;2.402;2023-03-23T14:34:58;6.90;;;2.10;;
65853;SDS011;52627;48.838;2.402;2023-03-23T14:37:26;7.20;;;2.30;;
65853;SDS011;52627;48.838;2.402;2023-03-23T14:39:54;8.70;;;2.60;;
65853;SDS011;52627;48.838;2.402;2023-03-23T14:42:29;6.50;;;2.10;;
65853;SDS011;52627;48.838;2.402;2023-03-23T14:44:59;6.00;;;2.10;;
65853;SDS011;52627;48.838;2.402;2023-03-23T14:47:32;7.20;;;2.00;;
65853;SDS011;52627;48.838;2.402;2023-03-23T14:50:03;8.70;;;2.20;;
65853;SDS011;52627;48.838;2.402;2023-03-23T14:52:36;4.60;;;2.00;;
65853;SDS011;52627;48.838;2.402;2023-03-23T14:55:20;6.80;;;2.20;;
65853;SDS011;52627;48.838;2.402;2023-03-23T14:57:49;5.10;;;1.70;;
65853;SDS011;52627;48.838;2.402;2023-03-23T15:00:21;9.30;;;2.30;;
65853;SDS011;52627;48.838;2.402;2023-03-23T15:02:53;6.70;;;2.10;;
65853;SDS011;52627;48.838;2.402;2023-03-23T15:05:33;7.60;;;2.90;;
65853;SDS011;52627;48.838;2.402;2023-03-23T15:08:04;6.00;;;1.90;;
65853;SDS011;52627;48.838;2.402;2023-03-23T15:10:33;7.50;;;2.50;;
65853;SDS011;52627;48.838;2.402;2023-03-23T15:12:59;6.70;;;2.10;;
65853;SDS011;52627;48.838;2.402;2023-03-23T15:15:32;7.50;;;1.90;;
65853;SDS011;52627;48.838;2.402;2023-03-23T15:18:01;6.00;;;2.00;;
65853;SDS011;52627;48.838;2.402;2023-03-23T15:20:46;8.30;;;2.40;;
65853;SDS011;52627;48.838;2.402;2023-03-23T15:23:16;7.80;;;2.30;;
65853;SDS011;52627;48.838;2.402;2023-03-23T15:25:55;6.90;;;1.80;;
65853;SDS011;52627;48.838;2.402;2023-03-23T15:28:31;5.60;;;1.90;;
65853;SDS011;52627;48.838;2.402;2023-03-23T15:31:04;8.40;;;2.10;;
65853;SDS011;52627;48.838;2.402;2023-03-23T15:33:39;8.20;;;2.20;;
65853;SDS011;52627;48.838;2.402;2023-03-23T15:36:15;6.60;;;1.90;;
65853;SDS011;52627;48.838;2.402;2023-03-23T15:38:43;6.20;;;1.80;;
65853;SDS011;52627;48.838;2.402;2023-03-23T15:41:25;7.00;;;1.90;;
65853;SDS011;52627;48.838;2.402;2023-03-23T15:43:58;6.20;;;2.00;;
65853;SDS011;52627;48.838;2.402;2023-03-23T15:46:35;6.40;;;2.10;;
65853;SDS011;52627;48.838;2.402;2023-03-23T15:49:08;6.50;;;1.80;;
65853;SDS011;52627;48.838;2.402;2023-03-23T15:51:36;5.70;;;1.80;;
65853;SDS011;52627;48.838;2.402;2023-03-23T15:54:03;6.80;;;2.20;;
65853;SDS011;52627;48.838;2.402;2023-03-23T15:56:31;6.80;;;2.00;;
65853;SDS011;52627;48.838;2.402;2023-03-23T15:59:00;6.50;;;2.10;;
65853;SDS011;52627;48.838;2.402;2023-03-23T16:01:28;5.20;;;1.80;;
65853;SDS011;52627;48.838;2.402;2023-03-23T16:04:07;6.10;;;1.90;;
65853;SDS011;52627;48.838;2.402;2023-03-23T16:06:37;6.70;;;2.00;;
65853;SDS011;52627;48.838;2.402;2023-03-23T16:09:06;5.50;;;1.50;;
65853;SDS011;52627;48.838;2.402;2023-03-23T16:11:37;7.60;;;2.00;;
65853;SDS011;52627;48.838;2.402;2023-03-23T16:14:04;8.10;;;2.00;;
65853;SDS011;52627;48.838;2.402;2023-03-23T16:16:38;5.20;;;1.80;;
65853;SDS011;52627;48.838;2.402;2023-03-23T16:19:17;6.10;;;2.50;;
65853;SDS011;52627;48.838;2.402;2023-03-23T16:21:46;6.30;;;1.80;;
65853;SDS011;52627;48.838;2.402;2023-03-23T16:24:14;7.40;;;2.30;;
65853;SDS011;52627;48.838;2.402;2023-03-23T16:26:42;6.70;;;1.90;;
65853;SDS011;52627;48.838;2.402;2023-03-23T16:29:14;6.60;;;2.00;;
65853;SDS011;52627;48.838;2.402;2023-03-23T16:32:02;6.10;;;2.20;;
65853;SDS011;52627;48.838;2.402;2023-03-23T16:34:29;6.20;;;2.40;;
65853;SDS011;52627;48.838;2.402;2023-03-23T16:37:00;5.00;;;1.70;;
65853;SDS011;52627;48.838;2.402;2023-03-23T16:39:27;6.20;;;2.00;;